Time;durP1;ratioP1;P1;durP2;ratioP2;P2;SDS_P1;SDS_P2;PMS_P1;PMS_P2;Temp;Humidity;BMP_temperature;BMP_pressure;BME280_temperature;BME280_humidity;BME280_pressure;Samples;Min_cycle;Max_cycle;Signal;HPM_P1;HPM_P2
2022/06/16 00:00:33;;;;;;;8.52;4.60;;;;;;;18.14;56.92;101791.25;5075025;28;20016;-70
2022/06/16 00:02:59;;;;;;;8.93;4.88;;;;;;;18.07;56.38;101787.13;5074825;28;20388;-71
2022/06/16 00:05:27;;;;;;;7.75;4.57;;;;;;;18.03;56.26;101785.56;5075730;28;20452;-70
2022/06/16 00:07:53;;;;;;;6.15;4.53;;;;;;;18.04;56.25;101792.53;5075314;28;20035;-70
2022/06/16 00:10:19;;;;;;;6.88;4.45;;;;;;;17.99;56.82;101783.97;5075102;28;20369;-70
2022/06/16 00:12:45;;;;;;;6.20;4.22;;;;;;;17.99;57.14;101789.25;5075238;28;20449;-70
2022/06/16 00:15:15;;;;;;;10.32;4.60;;;;;;;17.96;56.45;101792.00;5076291;28;20051;-70
2022/06/16 00:17:40;;;;;;;7.90;5.05;;;;;;;17.93;57.48;101792.97;5074928;28;20020;-70
2022/06/16 00:20:07;;;;;;;8.68;4.90;;;;;;;17.86;56.79;101791.50;5075551;28;20024;-70
2022/06/16 00:22:33;;;;;;;8.13;4.47;;;;;;;17.84;57.34;101789.81;5075389;28;20066;-70
2022/06/16 00:24:59;;;;;;;9.95;4.72;;;;;;;17.77;57.37;101797.13;5074233;28;20027;-70
2022/06/16 00:27:24;;;;;;;8.93;4.68;;;;;;;17.65;57.58;101794.91;5075491;28;20103;-70
2022/06/16 00:29:49;;;;;;;8.32;4.70;;;;;;;17.59;57.48;101793.34;5075095;28;20096;-70
2022/06/16 00:32:15;;;;;;;7.70;4.63;;;;;;;17.61;58.16;101790.66;5074492;28;20452;-71
2022/06/16 00:34:40;;;;;;;6.80;5.20;;;;;;;17.50;57.63;101797.22;5075319;28;20056;-70
2022/06/16 00:37:05;;;;;;;6.53;4.85;;;;;;;17.47;57.13;101799.97;5075631;28;20119;-70
2022/06/16 00:39:31;;;;;;;7.68;5.40;;;;;;;17.35;58.12;101800.41;5074330;28;20029;-70
2022/06/16 00:42:07;;;;;;;8.27;5.22;;;;;;;17.35;57.49;101808.31;5075236;28;20036;-70
2022/06/16 00:44:32;;;;;;;5.68;4.70;;;;;;;17.35;58.85;101810.09;5074704;28;20025;-70
2022/06/16 00:46:57;;;;;;;9.03;5.23;;;;;;;17.17;58.34;101807.22;5074804;28;20020;-70
2022/06/16 00:49:24;;;;;;;10.18;5.78;;;;;;;17.14;58.35;101804.69;5075186;28;20025;-70
2022/06/16 00:51:54;;;;;;;8.75;5.40;;;;;;;17.03;58.90;101807.69;5073598;28;20040;-71
2022/06/16 00:54:25;;;;;;;8.65;5.38;;;;;;;16.97;59.19;101812.28;5075246;28;20035;-70
2022/06/16 00:56:53;;;;;;;7.40;5.60;;;;;;;16.91;58.87;101813.41;5074489;28;20028;-70
2022/06/16 00:59:20;;;;;;;10.98;4.85;;;;;;;16.89;59.13;101817.84;5074326;28;20033;-70
2022/06/16 01:01:46;;;;;;;12.75;5.80;;;;;;;16.81;58.74;101812.84;5074863;28;20119;-70
2022/06/16 01:06:57;;;;;;;6.82;5.13;;;;;;;16.83;59.41;101813.63;5074097;28;20045;-70
2022/06/16 01:09:25;;;;;;;6.72;4.95;;;;;;;16.78;59.11;101818.22;5074563;28;20457;-70
2022/06/16 01:15:26;;;;;;;9.60;5.43;;;;;;;16.73;58.56;101821.88;5074470;28;20515;-70
2022/06/16 01:17:57;;;;;;;7.35;5.07;;;;;;;16.72;58.63;101823.66;5074275;28;20037;-70
2022/06/16 01:20:40;;;;;;;12.05;6.00;;;;;;;16.75;58.80;101830.63;5073887;28;20078;-70
2022/06/16 01:23:30;;;;;;;8.07;5.60;;;;;;;16.63;58.43;101826.59;5074501;28;20379;-70
2022/06/16 01:26:10;;;;;;;8.27;5.38;;;;;;;16.50;59.67;101830.53;5074003;28;20025;-70
2022/06/16 01:29:02;;;;;;;11.82;6.03;;;;;;;16.41;58.86;101829.06;5073526;28;20024;-70
2022/06/16 01:32:05;;;;;;;9.10;5.47;;;;;;;16.38;59.32;101832.66;5074523;28;20020;-70
2022/06/16 01:35:01;;;;;;;6.88;5.20;;;;;;;16.34;59.91;101848.59;5073420;28;20029;-70
2022/06/16 01:37:42;;;;;;;7.32;5.68;;;;;;;16.21;59.50;101842.84;5074345;28;20033;-70
2022/06/16 01:40:19;;;;;;;7.68;5.20;;;;;;;16.16;61.34;101852.66;5074725;28;20028;-70
2022/06/16 01:43:05;;;;;;;7.13;5.45;;;;;;;16.05;60.36;101852.97;5072943;28;20149;-70
2022/06/16 01:45:45;;;;;;;8.57;5.47;;;;;;;15.94;61.03;101844.53;5073873;28;20036;-70
2022/06/16 01:48:14;;;;;;;7.75;5.90;;;;;;;15.85;60.83;101844.81;5073306;28;20086;-70
2022/06/16 01:50:59;;;;;;;11.07;5.45;;;;;;;15.82;61.15;101845.75;5073777;28;20486;-70
2022/06/16 01:53:36;;;;;;;12.70;5.90;;;;;;;15.81;62.50;101848.44;5073546;28;20496;-70
2022/06/16 01:56:15;;;;;;;8.55;5.45;;;;;;;15.70;61.27;101840.03;5072539;28;20028;-70
2022/06/16 01:58:44;;;;;;;7.53;5.25;;;;;;;15.63;62.56;101844.53;5073543;28;20103;-70
2022/06/16 02:01:15;;;;;;;9.23;5.13;;;;;;;15.67;62.87;101848.84;5073694;28;20033;-70
2022/06/16 02:03:47;;;;;;;9.27;5.32;;;;;;;15.63;63.04;101858.56;5073099;28;20028;-70
2022/06/16 02:06:21;;;;;;;6.80;5.63;;;;;;;15.61;63.96;101863.00;5073815;28;20027;-70
2022/06/16 02:08:50;;;;;;;;;;;;;;;15.63;61.06;101861.19;5072870;28;20025;-70
2022/06/16 02:11:23;;;;;;;10.07;5.82;;;;;;;15.50;62.51;101858.94;5073271;28;20330;-70
2022/06/16 02:13:56;;;;;;;8.40;5.78;;;;;;;15.41;63.78;101842.53;5073341;28;20029;-70
2022/06/16 02:16:26;;;;;;;11.32;5.90;;;;;;;15.33;62.79;101846.25;5072660;28;20081;-70
2022/06/16 02:18:52;;;;;;;8.43;5.85;;;;;;;15.31;64.75;101843.69;5072971;28;20404;-70
2022/06/16 02:21:20;;;;;;;9.73;5.70;;;;;;;15.28;64.59;101849.03;5073403;28;20025;-70
2022/06/16 02:23:46;;;;;;;9.43;5.85;;;;;;;15.20;64.12;101845.72;5071940;28;20063;-70
2022/06/16 02:26:12;;;;;;;8.77;5.88;;;;;;;15.23;66.67;101845.66;5073206;28;20097;-70
2022/06/16 02:29:19;;;;;;;6.53;5.50;;;;;;;15.26;64.39;101849.97;5073240;28;20036;-70
2022/06/16 02:31:54;;;;;;;9.85;5.60;;;;;;;15.25;65.42;101854.34;5071804;28;20472;-70
2022/06/16 02:34:30;;;;;;;12.63;5.95;;;;;;;15.19;64.43;101860.63;5073382;28;20062;-70
2022/06/16 02:37:09;;;;;;;9.63;5.90;;;;;;;15.11;65.54;101870.50;5072109;28;20029;-70
2022/06/16 02:39:51;;;;;;;8.77;5.93;;;;;;;15.06;65.26;101892.50;5072929;28;20449;-70
2022/06/16 02:42:29;;;;;;;12.00;6.10;;;;;;;14.99;65.46;101891.81;5073381;28;20048;-70
2022/06/16 02:45:22;;;;;;;8.68;5.80;;;;;;;14.91;65.27;101899.88;5071974;28;20035;-70
2022/06/16 02:48:02;;;;;;;12.65;6.38;;;;;;;14.87;65.37;101908.72;5072847;28;20047;-70
2022/06/16 02:50:53;;;;;;;11.85;6.35;;;;;;;14.80;66.28;101909.75;5072930;28;20066;-70
2022/06/16 02:53:29;;;;;;;9.80;6.15;;;;;;;14.75;66.03;101911.66;5072103;28;20131;-70
2022/06/16 02:56:01;;;;;;;14.95;6.05;;;;;;;14.77;67.17;101906.34;5072971;28;20384;-70
2022/06/16 02:58:28;;;;;;;8.68;6.30;;;;;;;14.71;67.82;101904.72;5071975;28;20468;-70
2022/06/16 03:00:55;;;;;;;12.68;6.28;;;;;;;14.68;67.67;101900.44;5072686;28;20468;-70
2022/06/16 03:03:29;;;;;;;7.90;6.22;;;;;;;14.66;67.83;101912.72;5073098;28;20032;-70
2022/06/16 03:05:57;;;;;;;10.52;6.22;;;;;;;14.61;68.07;101906.69;5072184;28;20036;-70
2022/06/16 03:08:25;;;;;;;8.95;6.20;;;;;;;14.56;68.48;101911.22;5072807;28;20163;-70
2022/06/16 03:10:51;;;;;;;10.85;6.43;;;;;;;14.47;68.66;101912.25;5072657;28;20020;-70
2022/06/16 03:13:17;;;;;;;7.90;5.78;;;;;;;14.40;68.29;101905.41;5071922;28;20350;-70
2022/06/16 03:15:43;;;;;;;12.90;6.68;;;;;;;14.38;69.25;101894.09;5072552;28;20020;-70
2022/06/16 03:18:08;;;;;;;8.75;6.43;;;;;;;14.33;68.78;101906.44;5072778;28;20078;-70
2022/06/16 03:20:34;;;;;;;10.00;6.30;;;;;;;14.34;70.08;101902.94;5072496;28;20384;-70
2022/06/16 03:22:59;;;;;;;8.98;6.22;;;;;;;14.25;70.17;101906.59;5072590;28;20457;-70
2022/06/16 03:25:24;;;;;;;8.00;6.45;;;;;;;14.15;70.17;101902.44;5072881;28;20346;-70
2022/06/16 03:27:50;;;;;;;10.40;6.32;;;;;;;14.07;70.08;101901.78;5071581;28;20033;-70
2022/06/16 03:30:15;;;;;;;9.25;6.80;;;;;;;14.08;70.45;101910.50;5072940;28;20063;-70
2022/06/16 03:32:40;;;;;;;10.13;6.82;;;;;;;13.99;70.25;101906.28;5072341;28;20024;-70
2022/06/16 03:35:06;;;;;;;9.45;6.75;;;;;;;13.91;71.02;101895.13;5073696;28;20521;-70
2022/06/16 03:37:32;;;;;;;10.63;6.50;;;;;;;13.89;70.62;101905.63;5076443;28;20078;-70
2022/06/16 03:39:59;;;;;;;10.75;6.43;;;;;;;13.80;70.81;101906.69;5076014;28;20025;-70
2022/06/16 03:42:24;;;;;;;12.40;7.57;;;;;;;13.83;71.36;101918.84;5075358;28;20031;-70
2022/06/16 03:44:49;;;;;;;11.75;7.10;;;;;;;13.88;71.85;101911.78;5076071;28;20427;-70
2022/06/16 03:47:14;;;;;;;9.10;6.80;;;;;;;13.91;70.92;101919.56;5075478;28;20024;-70
2022/06/16 03:49:40;;;;;;;11.18;7.32;;;;;;;13.98;70.96;101923.78;5075965;28;20047;-70
2022/06/16 03:52:05;;;;;;;11.70;6.70;;;;;;;14.02;71.13;101933.31;5075779;28;20044;-70
2022/06/16 03:54:30;;;;;;;12.63;6.95;;;;;;;14.04;71.09;101931.53;5075078;28;20033;-70
2022/06/16 03:56:56;;;;;;;8.35;6.57;;;;;;;14.03;70.56;101942.06;5075822;28;20107;-70
2022/06/16 03:59:21;;;;;;;10.52;7.35;;;;;;;14.05;70.40;101933.25;5075838;28;20077;-70
2022/06/16 04:01:47;;;;;;;11.88;7.43;;;;;;;14.08;70.86;101948.06;5074933;28;20048;-70
2022/06/16 04:04:12;;;;;;;9.82;6.95;;;;;;;14.05;70.57;101946.38;5075913;28;20368;-70
2022/06/16 04:06:38;;;;;;;7.97;7.15;;;;;;;14.12;71.16;101956.72;5075871;28;20100;-70
2022/06/16 04:09:05;;;;;;;10.25;8.18;;;;;;;14.19;70.89;101948.72;5074655;28;20063;-70
2022/06/16 04:11:30;;;;;;;14.35;7.93;;;;;;;14.18;68.87;101952.22;5075596;28;20027;-70
2022/06/16 04:14:07;;;;;;;10.65;8.20;;;;;;;14.26;69.79;101958.19;5075186;28;20392;-70
2022/06/16 04:16:41;;;;;;;10.20;7.95;;;;;;;14.29;68.91;101958.13;5074920;28;20028;-70
2022/06/16 04:19:08;;;;;;;10.63;8.25;;;;;;;14.30;69.27;101958.97;5075754;28;20025;-70
2022/06/16 04:21:37;;;;;;;12.13;8.38;;;;;;;14.34;69.05;101959.78;5075680;28;20029;-70
2022/06/16 04:24:03;;;;;;;16.15;8.35;;;;;;;14.33;68.29;101961.53;5074260;28;20024;-70
2022/06/16 04:26:28;;;;;;;11.40;8.75;;;;;;;14.34;68.96;101965.88;5075635;28;20039;-69
2022/06/16 04:28:54;;;;;;;12.60;8.02;;;;;;;14.34;68.30;101967.66;5075273;28;20020;-70
2022/06/16 04:31:19;;;;;;;10.05;7.70;;;;;;;14.41;68.59;101974.47;5074595;28;20032;-70
2022/06/16 04:33:44;;;;;;;10.90;8.23;;;;;;;14.36;67.97;101971.13;5074975;28;20066;-70
2022/06/16 04:36:12;;;;;;;12.90;7.75;;;;;;;14.36;67.47;101974.59;5075241;28;20020;-70
2022/06/16 04:38:37;;;;;;;12.25;7.63;;;;;;;14.34;67.50;101968.50;5074798;28;20449;-70
2022/06/16 04:41:03;;;;;;;12.32;8.10;;;;;;;14.37;67.72;101972.81;5075030;28;20028;-70
2022/06/16 04:43:29;;;;;;;8.85;7.15;;;;;;;14.43;68.81;101988.44;5074829;28;20036;-70
2022/06/16 04:45:55;;;;;;;10.55;8.45;;;;;;;14.46;67.42;101984.00;5074352;28;20464;-70
2022/06/16 04:48:21;;;;;;;11.57;7.65;;;;;;;14.51;66.93;101997.03;5075166;28;20107;-70
2022/06/16 04:50:46;;;;;;;9.50;6.90;;;;;;;14.60;67.72;101996.84;5073919;28;20112;-70
2022/06/16 04:53:12;;;;;;;10.55;7.35;;;;;;;14.56;66.13;101992.56;5074545;28;20060;-70
2022/06/16 04:55:37;;;;;;;12.70;7.97;;;;;;;14.52;65.78;101991.78;5074986;28;20032;-70
2022/06/16 04:58:03;;;;;;;12.45;8.18;;;;;;;14.56;66.36;101992.56;5074095;28;20012;-70
2022/06/16 05:00:29;;;;;;;9.73;7.90;;;;;;;14.62;66.48;102000.31;5074830;28;20046;-70
2022/06/16 05:02:54;;;;;;;11.18;7.72;;;;;;;14.65;66.52;101992.38;5074494;28;20032;-70
2022/06/16 05:05:19;;;;;;;11.68;8.15;;;;;;;14.68;65.62;101994.94;5073946;28;20021;-70
2022/06/16 05:07:45;;;;;;;11.32;7.70;;;;;;;14.79;65.30;102006.94;5074191;28;20388;-70
2022/06/16 05:10:11;;;;;;;12.50;8.20;;;;;;;14.86;65.89;102011.16;5074817;28;20432;-70
2022/06/16 05:12:37;;;;;;;10.10;7.40;;;;;;;14.87;65.29;102010.25;5073843;28;20078;-70
2022/06/16 05:15:03;;;;;;;10.73;7.95;;;;;;;14.94;65.58;102007.47;5074404;28;20073;-70
2022/06/16 05:17:29;;;;;;;11.77;7.32;;;;;;;14.98;65.35;102014.38;5074716;28;20031;-70
2022/06/16 05:19:54;;;;;;;10.65;7.75;;;;;;;15.01;63.96;102013.44;5073440;28;20029;-70
2022/06/16 05:22:19;;;;;;;15.63;8.20;;;;;;;15.06;64.47;102026.44;5074463;28;20037;-70
2022/06/16 05:24:45;;;;;;;13.73;7.55;;;;;;;15.11;63.84;102030.69;5074111;28;20024;-70
2022/06/16 05:27:10;;;;;;;11.75;7.45;;;;;;;15.18;61.86;102027.03;5073653;28;20040;-70
2022/06/16 05:29:36;;;;;;;12.40;7.13;;;;;;;15.20;62.22;102024.34;5074246;28;20173;-70
2022/06/16 05:32:01;;;;;;;12.25;7.55;;;;;;;15.29;61.07;102031.16;5073683;28;20028;-70
2022/06/16 05:34:27;;;;;;;10.35;7.70;;;;;;;15.34;60.70;102037.19;5073196;28;20021;-70
2022/06/16 05:36:52;;;;;;;10.20;7.22;;;;;;;15.38;61.35;102041.44;5073644;28;20020;-70
2022/06/16 05:39:17;;;;;;;11.05;6.90;;;;;;;15.35;61.79;102041.50;5074173;28;20024;-70
2022/06/16 05:41:45;;;;;;;9.93;6.93;;;;;;;15.34;60.66;102037.19;5073158;28;20081;-70
2022/06/16 05:44:10;;;;;;;9.55;6.97;;;;;;;15.37;60.93;102051.09;5073955;28;20056;-70
2022/06/16 05:46:36;;;;;;;11.45;6.72;;;;;;;15.46;60.33;102057.88;5073899;28;20449;-70
2022/06/16 05:49:02;;;;;;;9.38;6.75;;;;;;;15.48;58.55;102055.22;5072665;28;20114;-70
2022/06/16 05:51:28;;;;;;;10.30;5.90;;;;;;;15.50;57.42;102048.16;5073453;28;20029;-71
2022/06/16 05:53:53;;;;;;;12.98;6.18;;;;;;;15.56;59.94;102048.00;5072734;28;20078;-70
2022/06/16 05:56:18;;;;;;;10.73;6.10;;;;;;;15.57;56.77;102037.47;5073570;28;20025;-70
2022/06/16 05:58:44;;;;;;;7.00;5.90;;;;;;;15.65;58.04;102059.16;5072728;28;20031;-70
2022/06/16 06:01:10;;;;;;;15.05;5.95;;;;;;;15.72;58.57;102059.03;5072756;28;20450;-70
2022/06/16 06:03:38;;;;;;;9.30;6.18;;;;;;;15.78;58.63;102062.34;5073580;28;20024;-70
2022/06/16 06:06:03;;;;;;;8.25;6.00;;;;;;;15.82;56.67;102065.78;5073211;28;20062;-70
2022/06/16 06:16:45;;;;;;;8.18;5.20;;;;;;;16.12;55.58;102071.97;5072448;28;20541;-70
2022/06/16 06:19:26;;;;;;;6.53;5.10;;;;;;;16.16;55.50;102068.38;5073189;28;20107;-70
2022/06/16 06:22:02;;;;;;;6.47;5.05;;;;;;;16.24;54.31;102070.78;5073076;28;20032;-70
2022/06/16 06:24:31;;;;;;;9.70;4.88;;;;;;;16.28;55.65;102070.66;5073260;28;20029;-70
2022/06/16 06:27:00;;;;;;;8.63;5.07;;;;;;;16.35;55.75;102079.28;5072831;28;20017;-70
2022/06/16 06:29:25;;;;;;;6.72;4.70;;;;;;;16.38;54.39;102068.63;5072134;28;20467;-70
2022/06/16 06:31:51;;;;;;;8.20;4.35;;;;;;;16.44;53.71;102076.34;5072967;28;20056;-70
2022/06/16 06:34:16;;;;;;;6.38;4.40;;;;;;;16.42;52.99;102077.31;5073132;28;20031;-70
2022/06/16 06:36:42;;;;;;;7.00;4.40;;;;;;;16.48;51.99;102074.50;5072131;28;20063;-70
2022/06/16 06:39:08;;;;;;;6.63;4.38;;;;;;;16.55;53.83;102070.81;5073039;28;20081;-70
2022/06/16 06:41:33;;;;;;;9.43;4.50;;;;;;;16.63;53.13;102074.91;5072828;28;20043;-70
2022/06/16 06:43:59;;;;;;;7.85;3.85;;;;;;;16.72;55.00;102080.84;5072106;28;20021;-70
2022/06/16 06:46:25;;;;;;;8.85;4.45;;;;;;;16.77;51.05;102077.19;5073046;28;20421;-70
2022/06/16 06:48:50;;;;;;;5.97;3.85;;;;;;;16.84;52.39;102078.75;5072771;28;20035;-70
2022/06/16 06:51:15;;;;;;;8.77;4.63;;;;;;;16.86;51.17;102083.94;5072178;28;20029;-70
2022/06/16 06:53:41;;;;;;;10.48;4.22;;;;;;;16.93;50.69;102080.22;5072360;28;20040;-70
2022/06/16 06:56:06;;;;;;;5.68;3.75;;;;;;;17.03;51.79;102084.28;5072712;28;20388;-70
2022/06/16 06:58:32;;;;;;;4.85;3.42;;;;;;;17.07;51.48;102083.31;5072232;28;20090;-70
2022/06/16 07:01:00;;;;;;;5.97;3.33;;;;;;;17.14;48.75;102083.13;5072616;28;20016;-70
2022/06/16 07:03:25;;;;;;;6.57;3.25;;;;;;;17.17;48.88;102094.44;5072888;28;20388;-70
2022/06/16 07:05:51;;;;;;;6.68;3.33;;;;;;;17.21;49.49;102100.47;5071818;28;20457;-70
2022/06/16 07:08:16;;;;;;;7.03;3.47;;;;;;;17.23;48.24;102103.88;5073180;28;20024;-70
2022/06/16 07:10:42;;;;;;;7.05;3.33;;;;;;;17.30;48.90;102105.44;5076486;28;20472;-70
2022/06/16 07:13:07;;;;;;;3.22;2.72;;;;;;;17.39;49.54;102104.28;5076212;28;20531;-70
2022/06/16 07:15:34;;;;;;;5.47;2.83;;;;;;;17.44;48.09;102108.50;5076955;28;20029;-70
2022/06/16 07:17:59;;;;;;;6.05;3.30;;;;;;;17.51;47.36;102119.72;5076536;28;20030;-70
2022/06/16 07:20:24;;;;;;;4.55;3.25;;;;;;;17.52;47.78;102124.91;5075969;28;20127;-70
2022/06/16 07:22:49;;;;;;;5.28;3.00;;;;;;;17.50;47.10;102124.13;5076318;28;20025;-70
2022/06/16 07:25:15;;;;;;;4.63;2.92;;;;;;;17.61;48.78;102125.56;5076124;28;20047;-70
2022/06/16 07:27:41;;;;;;;4.25;2.80;;;;;;;17.67;48.38;102130.63;5076007;28;20023;-70
2022/06/16 07:30:14;;;;;;;5.93;3.25;;;;;;;17.67;49.28;102135.91;5076600;28;20031;-70
2022/06/16 07:32:40;;;;;;;9.40;3.30;;;;;;;17.76;49.56;102135.59;5075600;28;20028;-70
2022/06/16 07:35:05;;;;;;;6.20;2.75;;;;;;;17.82;48.34;102135.44;5076448;28;20074;-70
2022/06/16 07:37:31;;;;;;;5.05;3.10;;;;;;;17.94;49.28;102148.19;5076549;28;20059;-70
2022/06/16 07:39:56;;;;;;;7.35;3.20;;;;;;;18.01;49.15;102162.03;5075134;28;20020;-70
2022/06/16 07:42:21;;;;;;;4.55;2.92;;;;;;;18.05;47.67;102158.41;5076410;28;20044;-70
2022/06/16 07:44:47;;;;;;;4.97;2.92;;;;;;;18.14;48.14;102151.94;5075811;28;20108;-70
2022/06/16 07:47:12;;;;;;;4.82;3.35;;;;;;;18.21;46.94;102153.44;5075296;28;20021;-70
2022/06/16 07:49:37;;;;;;;5.28;3.40;;;;;;;18.24;46.05;102158.63;5076125;28;20029;-70
2022/06/16 07:52:03;;;;;;;6.53;3.20;;;;;;;18.30;46.81;102158.41;5075436;28;20066;-70
2022/06/16 07:54:29;;;;;;;8.18;3.15;;;;;;;18.34;48.96;102154.75;5075207;28;20040;-70
2022/06/16 07:56:55;;;;;;;5.47;3.10;;;;;;;18.41;47.77;102160.66;5075827;28;20029;-70
2022/06/16 07:59:20;;;;;;;4.72;2.95;;;;;;;18.49;46.95;102167.41;5075989;28;20021;-70
2022/06/16 08:01:46;;;;;;;4.15;2.92;;;;;;;18.58;46.95;102174.16;5074936;28;20070;-70
2022/06/16 08:04:12;;;;;;;10.18;3.22;;;;;;;18.66;47.97;102172.09;5075851;28;20020;-70
2022/06/16 08:06:38;;;;;;;6.47;3.63;;;;;;;18.68;46.51;102177.31;5075901;28;20036;-70
2022/06/16 08:09:07;;;;;;;7.45;3.22;;;;;;;18.74;47.32;102177.13;5074454;28;20024;-70
2022/06/16 08:14:17;;;;;;;7.82;3.55;;;;;;;19.01;46.22;102179.69;5075581;28;20055;-70
2022/06/16 08:16:42;;;;;;;6.13;3.70;;;;;;;19.07;47.86;102179.44;5074574;28;20044;-70
2022/06/16 08:19:08;;;;;;;6.72;3.60;;;;;;;19.20;46.32;102180.69;5075553;28;20024;-70
2022/06/16 08:21:34;;;;;;;8.55;3.67;;;;;;;19.28;47.76;102175.97;5073926;28;20043;-76
2022/06/16 08:23:59;;;;;;;8.25;3.00;;;;;;;19.39;48.55;102186.13;5075343;28;20078;-70
2022/06/16 08:26:25;;;;;;;4.75;3.25;;;;;;;19.39;45.15;102180.81;5075561;28;20532;-70
2022/06/16 08:28:53;;;;;;;5.88;3.10;;;;;;;19.39;44.42;102173.78;5074399;28;20040;-70
2022/06/16 08:31:20;;;;;;;3.85;2.78;;;;;;;19.41;45.62;102161.34;5075443;28;20062;-70
2022/06/16 08:33:47;;;;;;;4.13;2.58;;;;;;;19.54;47.82;102163.50;5074905;28;20040;-70
2022/06/16 08:36:12;;;;;;;5.68;2.95;;;;;;;19.63;45.26;102153.44;5074366;28;20036;-70
2022/06/16 08:38:38;;;;;;;4.70;2.72;;;;;;;19.78;47.43;102174.91;5075472;28;20025;-70
2022/06/16 08:41:15;;;;;;;4.72;3.00;;;;;;;19.79;48.14;102164.28;5074999;28;20520;-70
2022/06/16 08:44:03;;;;;;;3.25;2.30;;;;;;;19.78;45.54;102173.13;5074305;28;20054;-70
2022/06/16 08:46:36;;;;;;;5.03;2.65;;;;;;;19.82;44.50;102174.72;5074989;28;20031;-70
2022/06/16 08:49:10;;;;;;;9.93;2.83;;;;;;;19.89;45.01;102175.34;5074917;28;20097;-70
2022/06/16 08:51:53;;;;;;;4.93;2.88;;;;;;;20.00;44.94;102185.47;5074150;28;20131;-70
2022/06/16 08:54:45;;;;;;;5.60;3.22;;;;;;;19.95;43.12;102182.16;5074823;28;20039;-70
2022/06/16 08:57:23;;;;;;;4.93;2.72;;;;;;;20.06;45.26;102185.22;5074255;28;20132;-70
2022/06/16 08:59:48;;;;;;;7.95;3.20;;;;;;;20.18;44.33;102194.44;5074657;28;20029;-70
2022/06/16 09:02:44;;;;;;;7.00;2.60;;;;;;;20.21;45.12;102191.63;5074859;28;20041;-70
2022/06/16 09:05:24;;;;;;;3.97;3.00;;;;;;;20.32;42.73;102194.69;5073914;28;20283;-70
2022/06/16 09:08:19;;;;;;;7.55;3.55;;;;;;;20.44;42.90;102203.91;5074610;28;20055;-70
2022/06/16 09:11:10;;;;;;;8.75;3.40;;;;;;;20.58;43.68;102209.50;5065279;28;20124;-70
2022/06/16 09:13:46;;;;;;;5.50;3.00;;;;;;;20.67;45.14;102203.78;5074348;28;20115;-70
2022/06/16 09:16:36;;;;;;;7.15;3.72;;;;;;;20.77;43.51;102205.09;5074466;28;20536;-70
2022/06/16 09:19:38;;;;;;;6.13;3.08;;;;;;;20.83;42.19;102197.78;5073422;28;20068;-70
2022/06/16 09:22:29;;;;;;;5.68;2.63;;;;;;;20.89;43.76;102211.63;5073987;28;20598;-70
2022/06/16 09:25:25;;;;;;;6.47;3.08;;;;;;;20.96;43.27;102204.25;5073170;28;20513;-70
2022/06/16 09:28:03;;;;;;;3.92;2.72;;;;;;;21.09;45.19;102216.03;5073945;28;20056;-70
2022/06/16 09:30:35;;;;;;;6.30;3.25;;;;;;;21.29;45.16;102204.50;5074130;28;20087;-70
2022/06/16 09:33:35;;;;;;;8.70;3.13;;;;;;;21.48;41.16;102207.16;5072135;28;20040;-70
2022/06/16 09:36:09;;;;;;;6.10;3.05;;;;;;;21.57;42.75;102208.53;5051678;28;20187;-70
2022/06/16 09:38:53;;;;;;;6.50;3.00;;;;;;;21.60;42.06;102203.06;5070812;28;20052;-70
2022/06/16 09:44:43;;;;;;;5.38;3.55;;;;;;;21.58;43.54;102207.59;5071892;28;20042;-70
2022/06/16 09:47:12;;;;;;;7.53;3.55;;;;;;;21.75;41.82;102210.31;5073141;28;20035;-70
2022/06/16 09:49:47;;;;;;;7.22;3.17;;;;;;;21.87;43.68;102214.97;5074021;28;20029;-70
2022/06/16 09:52:28;;;;;;;5.57;3.20;;;;;;;21.96;42.54;102211.03;5073657;28;20055;-70
2022/06/16 09:55:01;;;;;;;7.18;3.53;;;;;;;22.11;41.50;102206.75;5072708;28;20032;-70
2022/06/16 09:57:34;;;;;;;7.00;3.80;;;;;;;22.19;42.61;102210.75;5073655;28;20020;-70
2022/06/16 10:00:05;;;;;;;6.20;3.65;;;;;;;22.19;41.96;102208.09;5073329;28;20031;-70
2022/06/16 10:02:38;;;;;;;7.55;5.05;;;;;;;22.10;39.19;102213.84;5073827;28;20020;-70
2022/06/16 10:05:11;;;;;;;8.40;3.90;;;;;;;22.09;41.22;102209.47;5073244;28;20389;-70
2022/06/16 10:07:46;;;;;;;4.10;3.28;;;;;;;22.16;42.89;102207.41;5072639;28;20043;-70
2022/06/16 10:10:24;;;;;;;5.47;3.38;;;;;;;22.40;41.87;102205.31;5073637;28;20472;-70
2022/06/16 10:13:00;;;;;;;7.03;3.40;;;;;;;22.54;41.79;102194.81;5073220;28;20028;-70
2022/06/16 10:15:39;;;;;;;8.30;3.90;;;;;;;22.57;40.24;102205.28;5072556;28;20032;-71
2022/06/16 10:18:05;;;;;;;5.07;3.58;;;;;;;22.54;40.59;102209.91;5072985;28;20070;-70
2022/06/16 10:20:31;;;;;;;6.75;3.35;;;;;;;22.61;42.11;102209.47;5073458;28;20119;-70
2022/06/16 10:23:14;;;;;;;7.28;3.70;;;;;;;22.73;41.19;102215.13;5072242;28;20107;-70
2022/06/16 10:25:47;;;;;;;;;;;;;;;22.88;41.31;102220.44;5073758;28;20024;-70
2022/06/16 10:28:12;;;;;;;6.70;4.38;;;;;;;22.79;39.05;102217.41;5072283;28;19908;-70
2022/06/16 10:30:39;;;;;;;7.07;4.00;;;;;;;22.79;39.19;102213.00;5072960;28;20029;-70
2022/06/16 10:33:20;;;;;;;7.28;3.70;;;;;;;23.01;40.92;102230.47;5073244;28;20420;-70
2022/06/16 10:35:51;;;;;;;6.50;3.67;;;;;;;23.10;40.34;102229.97;5072169;28;20056;-70
2022/06/16 10:38:38;;;;;;;6.60;3.85;;;;;;;23.07;39.36;102222.16;5073146;28;20066;-70
2022/06/16 10:41:20;;;;;;;6.25;3.47;;;;;;;23.03;42.04;102226.78;5072625;28;20032;-71
2022/06/16 10:43:47;;;;;;;6.40;3.38;;;;;;;23.23;40.23;102219.53;5071475;28;20445;-70
2022/06/16 10:46:22;;;;;;;8.35;3.35;;;;;;;23.32;40.05;102221.69;5072921;28;20593;-70
2022/06/16 10:48:52;;;;;;;6.88;3.78;;;;;;;23.56;40.18;102217.63;5072791;28;20028;-71
2022/06/16 10:51:20;;;;;;;6.85;3.60;;;;;;;23.64;40.89;102219.00;5072189;28;20052;-71
2022/06/16 10:54:25;;;;;;;5.47;3.30;;;;;;;23.82;41.02;102218.84;5072349;28;20048;-71
2022/06/16 10:57:11;;;;;;;6.43;3.50;;;;;;;23.96;41.50;102210.03;5070407;28;20101;-71
2022/06/16 10:59:45;;;;;;;8.85;4.00;;;;;;;24.06;40.04;102208.56;5072705;28;20487;-71
2022/06/16 11:02:18;;;;;;;;;;;;;;;24.28;40.82;102207.28;5073501;28;20028;-71
2022/06/16 11:04:49;;;;;;;;;;;;;;;24.45;41.67;102214.31;5072302;28;19916;-71
2022/06/16 11:07:19;;;;;;;5.85;3.28;;;;;;;24.63;39.39;102210.53;5072916;28;20338;-71
2022/06/16 11:09:45;;;;;;;6.53;3.47;;;;;;;24.86;41.08;102216.25;5072482;28;20029;-71
2022/06/16 11:12:19;;;;;;;6.20;3.45;;;;;;;24.92;37.55;102206.06;5071778;28;20349;-71
2022/06/16 11:14:56;;;;;;;9.07;3.47;;;;;;;24.97;38.66;102209.28;5072575;28;20067;-71
2022/06/16 11:17:30;;;;;;;7.50;3.75;;;;;;;24.90;37.60;102207.97;5072351;28;20028;-71
2022/06/16 11:20:10;;;;;;;7.38;3.33;;;;;;;24.96;38.65;102204.06;5072399;28;20031;-71
2022/06/16 11:22:42;;;;;;;6.55;3.78;;;;;;;25.00;36.33;102209.09;5072591;28;20067;-71
2022/06/16 11:25:30;;;;;;;8.82;3.60;;;;;;;25.23;37.50;102205.00;5071836;28;20157;-71
2022/06/16 11:28:12;;;;;;;5.85;3.70;;;;;;;25.34;36.94;102206.13;5072360;28;20028;-71
2022/06/16 11:30:50;;;;;;;5.47;3.72;;;;;;;25.32;37.14;102198.22;5072558;28;20020;-71
2022/06/16 11:36:45;;;;;;;5.45;2.85;;;;;;;25.73;39.44;102199.13;5072789;28;20097;-71
2022/06/16 11:39:22;;;;;;;10.32;3.67;;;;;;;25.83;37.76;102192.25;5071751;28;20040;-71
2022/06/16 11:41:52;;;;;;;8.13;3.63;;;;;;;26.02;35.85;102187.38;5072293;28;20036;-71
2022/06/16 11:44:34;;;;;;;5.25;3.10;;;;;;;26.15;36.82;102192.75;5072541;28;20048;-71
2022/06/16 11:47:42;;;;;;;5.80;3.30;;;;;;;26.76;36.68;102193.03;5071740;28;20153;-71
2022/06/16 11:50:27;;;;;;;6.68;3.60;;;;;;;27.55;33.74;102194.47;5072289;28;20035;-71
2022/06/16 11:53:01;;;;;;;5.60;3.10;;;;;;;28.75;33.65;102199.59;5070969;28;20155;-71
2022/06/16 11:55:44;;;;;;;4.20;3.45;;;;;;;30.03;31.34;102181.97;5072996;28;20072;-71
2022/06/16 11:58:28;;;;;;;6.38;3.58;;;;;;;31.25;27.81;102181.16;5075840;28;20032;-71
2022/06/16 12:01:00;;;;;;;15.40;3.72;;;;;;;32.70;29.30;102191.03;5074677;28;20033;-71
2022/06/16 12:03:37;;;;;;;6.20;3.47;;;;;;;33.57;25.04;102200.50;5075999;28;20034;-72
2022/06/16 12:06:20;;;;;;;9.23;3.63;;;;;;;34.33;26.01;102201.81;5075488;28;20042;-71